Latest  Newer  Older  Last 2 hours slideshow  Last 24 hours slideshow  Refresh every 5 minutes 
Current image  Latest image  Rain/snow radar  Cloud coverage sat images 

All time is UTC (add 2 hours to UTC in wintertime, 3 hours to UTC in DST for Latvia local time)

2020/02/22 20:50 EVRA 222050Z 23012KT CAVOK 05/00 Q0991 R18/290195 NOSIG
2020/02/22 20:50 EVLA 222050Z AUTO 25022KT 9999 FEW021/// BKN160/// 06/03 Q0993
2020/02/22 20:50 EVVA 222050Z AUTO 25023G33KT CAVOK 05/03 Q0989
2020/02/22 20:50 EYKA 222050Z 24017G35KT 200V260 7000 -RA BKN012 OVC028 06/02 Q1000 R08/290095
2020/02/22 20:50 EYPA 222050Z VRB11G29KT 9999 BKN014 06/03 Q0996 R19/1///95
2020/02/22 20:50 EYSA 222050Z 23015KT 9999 BKN021 BKN046 BKN130 05/03 Q0995 R14L/29//95 R14R/29//95 WHT TEMPO SCT025 BLU
2020/02/22 20:50 EYVI 222050Z 22015KT 9999 BKN032CB BKN064 04/02 Q1001 R19/2///95 NOSIG
2020/02/22 08:50 EEKA 220850Z 20016KT 160V240 9000 RA BKN009 OVC016 05/04 Q0995
2020/02/22 20:50 EEKE 222050Z AUTO 26017G32KT 210V300 9999NDV FEW036 OVC043 05/01 Q0984
2020/02/22 13:50 EEPU 221350Z 19020G36KT 160V230 3600 -RA BR BKN008 OVC014 04/03 Q0991
2020/02/22 20:50 EETN 222050Z 25024G36KT 0900 R26/P2000 +SHRASN SCT011 SCT017CB BKN026 04/02 Q0978 R08/290195 TEMPO 26028G45KT
2020/02/22 20:50 EETU 222050Z AUTO 22020KT 9999 BKN011/// BKN015/// OVC026/// 03/02 Q0984 REDZ
   RIGA AIRPORT     EVRA               56 55N  023 58E   10   X     T          6 LV
   LIEPAJA INTL     EVLA        26406  56 31N  021 06E    4   X                8 LV
   VENTPILS         EVVA               57 21N  021 33E    6   X                8 LV
   KAUNAS           EYKA               54 54N  023 55E   77   X     T          6 LT
   PALANGA INTL     EYPA               55 55N  021 03E   10   X                6 LT
   SIAULIAI INTL    EYSA               55 54N  023 24E  135   X     T          6 LT
   VILNIUS INTL     EYVI        26730  54 38N  025 17E  197   X     T          6 LT
   KARDLA           EEKA        26116  58 59N  022 50E    4   X                8 EE
   KURESSAARE       EEKE               58 14N  022 31E    4   X                8 EE
   PARNU            EEPU               58 25N  024 28E   14   X                8 EE
   TALLINN          EETN        26038  59 24N  024 49E   40   X     T          8 EE
   TARTU            EETU               58 19N  026 41E   67   X                8 EE